Time;durP1;ratioP1;P1;durP2;ratioP2;P2;SDS_P1;SDS_P2;PMS_P1;PMS_P2;Temp;Humidity;BMP_temperature;BMP_pressure;BME280_temperature;BME280_humidity;BME280_pressure;Samples;Min_cycle;Max_cycle;Signal;HPM_P1;HPM_P2
2021/12/28 00:01:06;;;;;;;48.42;20.62;;;;;;;-6.77;75.92;100545.48;1634423;86;26576;-78
2021/12/28 00:03:32;;;;;;;60.85;24.77;;;;;;;-6.78;75.83;100542.52;1641705;86;26569;-78
2021/12/28 00:06:01;;;;;;;55.58;23.10;;;;;;;-6.80;75.81;100543.51;1639263;85;25858;-79
2021/12/28 00:08:28;;;;;;;58.20;24.70;;;;;;;-6.82;75.63;100535.75;1603745;89;28002;-78
2021/12/28 00:10:57;;;;;;;42.65;19.80;;;;;;;-6.84;75.58;100532.39;1603306;89;25966;-78
2021/12/28 00:13:25;;;;;;;48.63;20.00;;;;;;;-6.86;75.51;100535.53;1638700;85;25756;-78
2021/12/28 00:18:25;;;;;;;53.30;21.97;;;;;;;-6.93;75.40;100543.30;1606546;87;25935;-78
2021/12/28 00:20:57;;;;;;;53.48;20.02;;;;;;;-6.97;75.40;100542.23;1603839;87;28282;-78
2021/12/28 00:23:31;;;;;;;58.05;24.85;;;;;;;-7.02;75.43;100537.25;1604471;87;25925;-78
2021/12/28 00:25:57;;;;;;;60.52;25.35;;;;;;;-7.04;75.57;100537.79;1637874;86;25898;-78
2021/12/28 00:28:25;;;;;;;58.90;22.80;;;;;;;-7.05;75.54;100542.60;1639125;86;26544;-78
2021/12/28 00:30:53;;;;;;;50.90;20.95;;;;;;;-7.07;75.44;100545.29;1607185;87;26089;-78
2021/12/28 00:33:22;;;;;;;64.32;26.75;;;;;;;-7.08;75.41;100544.89;1638231;85;27472;-78
2021/12/28 00:35:49;;;;;;;64.93;26.13;;;;;;;-7.10;75.43;100545.43;1601599;88;25956;-78
2021/12/28 00:38:22;;;;;;;67.92;25.75;;;;;;;-7.10;75.44;100551.94;1640372;86;25863;-78
2021/12/28 00:40:52;;;;;;;56.20;24.05;;;;;;;-7.11;75.42;100548.13;1601535;87;25880;-79
2021/12/28 00:43:19;;;;;;;54.40;22.13;;;;;;;-7.15;75.38;100547.89;1582007;89;26586;-78
2021/12/28 00:45:46;;;;;;;57.27;23.32;;;;;;;-7.15;75.37;100543.54;1639740;86;27534;-78
2021/12/28 00:48:13;;;;;;;59.85;25.10;;;;;;;-7.16;75.25;100543.14;1641690;85;26540;-78
2021/12/28 00:50:40;;;;;;;57.05;22.48;;;;;;;-7.19;75.25;100536.81;1636261;86;25792;-78
2021/12/28 00:53:07;;;;;;;43.75;20.15;;;;;;;-7.21;75.25;100539.09;1640347;85;26636;-78
2021/12/28 00:55:34;;;;;;;43.70;18.23;;;;;;;-7.25;75.22;100537.09;1639644;85;25380;-78
2021/12/28 00:58:00;;;;;;;59.15;23.83;;;;;;;-7.29;75.20;100536.86;1641184;85;28279;-78
2021/12/28 01:00:30;;;;;;;49.90;17.65;;;;;;;-7.31;75.28;100532.20;1636705;86;25996;-78
2021/12/28 01:02:58;;;;;;;62.43;24.45;;;;;;;-7.32;75.25;100533.58;1605321;87;25822;-79
2021/12/28 01:05:26;;;;;;;57.60;23.35;;;;;;;-7.36;75.30;100535.50;1642042;86;25821;-78
2021/12/28 01:07:55;;;;;;;45.83;18.77;;;;;;;-7.38;75.42;100538.64;1607079;87;25988;-78
2021/12/28 01:10:26;;;;;;;65.28;23.60;;;;;;;-7.40;75.35;100544.35;1638949;86;28890;-79
2021/12/28 01:12:55;;;;;;;51.35;22.60;;;;;;;-7.44;75.47;100533.72;1604091;87;25806;-78
2021/12/28 01:15:24;;;;;;;62.03;25.48;;;;;;;-7.44;75.50;100534.20;1646279;85;25889;-79
2021/12/28 01:17:50;;;;;;;56.48;23.52;;;;;;;-7.47;75.63;100533.88;1638130;86;25781;-78
2021/12/28 01:20:17;;;;;;;54.85;22.22;;;;;;;-7.45;75.62;100533.34;1634913;87;25875;-78
2021/12/28 01:22:45;;;;;;;51.08;23.95;;;;;;;-7.47;75.55;100526.53;1637187;85;26978;-78
2021/12/28 01:25:14;;;;;;;52.70;21.65;;;;;;;-7.47;75.63;100526.53;1640023;86;26423;-78
2021/12/28 01:27:40;;;;;;;42.25;17.45;;;;;;;-7.49;75.62;100519.27;1602374;87;25904;-78
2021/12/28 01:30:09;;;;;;;55.30;23.47;;;;;;;-7.50;75.67;100526.22;1602437;87;26709;-78
2021/12/28 01:32:36;;;;;;;53.35;24.02;;;;;;;-7.53;75.61;100520.34;1600735;87;26545;-78
2021/12/28 01:35:06;;;;;;;56.95;22.50;;;;;;;-7.57;75.69;100517.02;1580452;89;27996;-78
2021/12/28 01:37:32;;;;;;;57.30;23.40;;;;;;;-7.57;75.84;100512.30;1603340;87;26480;-78
2021/12/28 01:39:59;;;;;;;54.80;23.65;;;;;;;-7.59;75.81;100512.84;1611489;87;25843;-78
2021/12/28 01:42:25;;;;;;;50.63;21.57;;;;;;;-7.62;75.87;100512.52;1635290;85;25835;-78
2021/12/28 01:44:52;;;;;;;57.43;23.30;;;;;;;-7.65;75.90;100512.66;1603821;87;25951;-78
2021/12/28 01:47:18;;;;;;;55.67;24.07;;;;;;;-7.65;76.06;100511.81;1638184;86;27670;-78
2021/12/28 01:49:45;;;;;;;65.47;25.62;;;;;;;-7.64;76.05;100513.51;1636743;86;26105;-78
2021/12/28 01:52:12;;;;;;;55.33;23.25;;;;;;;-7.65;76.08;100502.26;1602890;87;26688;-78
2021/12/28 01:54:38;;;;;;;51.37;20.62;;;;;;;-7.64;76.16;100498.76;1582746;89;26373;-78
2021/12/28 01:57:05;;;;;;;53.05;22.27;;;;;;;-7.64;76.11;100492.25;1603200;87;25991;-78
2021/12/28 01:59:31;;;;;;;58.15;22.98;;;;;;;-7.66;76.17;100484.98;1602954;89;27441;-78
2021/12/28 02:01:58;;;;;;;61.75;24.87;;;;;;;-7.68;76.28;100492.03;1599477;87;26714;-78
2021/12/28 02:04:28;;;;;;;60.33;24.47;;;;;;;-7.70;76.32;100486.06;1577960;89;25765;-78
2021/12/28 02:06:57;;;;;;;52.33;22.13;;;;;;;-7.70;76.25;100480.02;1578698;89;25861;-78
2021/12/28 02:09:25;;;;;;;50.83;24.37;;;;;;;-7.72;76.30;100484.45;1637710;86;25771;-78
2021/12/28 02:11:52;;;;;;;56.18;24.47;;;;;;;-7.75;76.31;100486.73;1638795;85;27579;-78
2021/12/28 02:14:19;;;;;;;62.70;25.88;;;;;;;-7.76;76.49;100486.33;1637368;85;26542;-79
2021/12/28 02:16:45;;;;;;;52.20;22.32;;;;;;;-7.75;76.56;100486.73;1634124;85;25814;-79
2021/12/28 02:19:13;;;;;;;51.65;22.35;;;;;;;-7.75;76.62;100481.98;1599841;89;26551;-78
2021/12/28 02:21:39;;;;;;;71.45;28.60;;;;;;;-7.77;76.65;100485.97;1598424;88;25985;-78
2021/12/28 02:24:08;;;;;;;52.78;22.82;;;;;;;-7.77;76.73;100485.12;1604263;87;27472;-78
2021/12/28 02:26:34;;;;;;;62.80;26.52;;;;;;;-7.76;76.75;100484.22;1604769;87;25959;-78
2021/12/28 02:29:01;;;;;;;50.08;21.95;;;;;;;-7.75;76.75;100488.48;1635065;86;25929;-78
2021/12/28 02:31:28;;;;;;;58.40;25.52;;;;;;;-7.77;76.88;100485.97;1603589;87;27147;-78
2021/12/28 02:33:54;;;;;;;45.03;19.48;;;;;;;-7.77;77.04;100478.62;1605275;87;25787;-79
2021/12/28 02:36:21;;;;;;;45.88;21.45;;;;;;;-7.75;77.34;100480.69;1607527;87;28312;-78
2021/12/28 02:38:48;;;;;;;59.80;26.27;;;;;;;-7.74;77.35;100479.78;1637145;86;25368;-78
2021/12/28 02:41:15;;;;;;;52.80;23.40;;;;;;;-7.71;77.35;100467.91;1603154;87;25853;-78
2021/12/28 02:43:47;;;;;;;41.63;17.92;;;;;;;-7.69;77.34;100468.68;1639223;86;25857;-78
2021/12/28 02:46:13;;;;;;;50.75;23.22;;;;;;;-7.69;77.41;100463.03;1637227;85;26527;-78
2021/12/28 02:48:41;;;;;;;54.27;22.22;;;;;;;-7.69;77.41;100461.73;1636404;85;27464;-79
2021/12/28 02:51:14;;;;;;;54.55;24.50;;;;;;;-7.68;77.42;100458.22;1638195;87;25999;-79
2021/12/28 02:53:43;;;;;;;49.95;22.40;;;;;;;-7.65;77.55;100461.10;1604013;87;25736;-79
2021/12/28 02:56:12;;;;;;;44.45;18.17;;;;;;;-7.63;77.67;100451.50;1638696;85;25761;-78
2021/12/28 02:58:43;;;;;;;50.80;21.05;;;;;;;-7.62;77.76;100447.97;1604051;87;25805;-78
2021/12/28 03:01:26;;;;;;;51.83;22.95;;;;;;;-7.62;77.90;100437.11;1578692;89;28317;-78
2021/12/28 03:04:03;;;;;;;63.85;26.23;;;;;;;-7.59;77.97;100437.42;1637705;85;25810;-79
2021/12/28 03:06:28;;;;;;;51.53;20.95;;;;;;;-7.57;78.06;100440.78;1638274;85;25895;-78
2021/12/28 03:08:57;;;;;;;48.60;21.45;;;;;;;-7.54;78.20;100437.56;1637227;85;26065;-79
2021/12/28 03:11:27;;;;;;;48.70;22.27;;;;;;;-7.51;78.14;100431.37;1637100;85;25837;-79
2021/12/28 03:13:58;;;;;;;51.25;23.77;;;;;;;-7.49;78.12;100428.23;1637008;86;27481;-78
2021/12/28 03:16:27;;;;;;;49.55;22.50;;;;;;;-7.45;78.13;100421.50;1636921;86;25661;-78
2021/12/28 03:18:53;;;;;;;55.73;26.12;;;;;;;-7.42;78.15;100414.81;1637839;86;26092;-78
2021/12/28 03:21:22;;;;;;;50.88;20.82;;;;;;;-7.40;78.27;100411.67;1637867;86;26692;-78
2021/12/28 03:23:50;;;;;;;52.75;22.52;;;;;;;-7.39;78.18;100409.92;1638039;86;26464;-78
2021/12/28 03:26:17;;;;;;;57.33;25.77;;;;;;;-7.38;78.15;100416.37;1636197;85;28555;-79
2021/12/28 03:28:45;;;;;;;58.33;26.23;;;;;;;-7.35;78.25;100421.40;1603140;88;25759;-78
2021/12/28 03:31:15;;;;;;;60.00;26.40;;;;;;;-7.30;78.32;100423.31;1638752;86;25760;-78
2021/12/28 03:33:44;;;;;;;52.85;23.12;;;;;;;-7.29;78.22;100415.88;1639740;86;26785;-78
2021/12/28 03:36:12;;;;;;;59.45;25.52;;;;;;;-7.26;78.33;100411.83;1637771;86;25779;-78
2021/12/28 03:38:40;;;;;;;47.48;20.17;;;;;;;-7.26;78.31;100412.28;1635938;86;27616;-78
2021/12/28 03:41:08;;;;;;;55.70;23.90;;;;;;;-7.24;78.32;100409.98;1638409;85;25969;-78
2021/12/28 03:43:37;;;;;;;72.53;29.75;;;;;;;-7.23;78.29;100405.63;1642319;85;25702;-79
2021/12/28 03:46:04;;;;;;;56.55;27.30;;;;;;;-7.21;78.39;100405.93;1640977;86;26595;-78
2021/12/28 03:48:30;;;;;;;64.00;26.33;;;;;;;-7.18;78.35;100408.36;1638037;85;26455;-78
2021/12/28 03:50:56;;;;;;;68.40;28.70;;;;;;;-7.16;78.37;100411.72;1602752;88;28638;-78
2021/12/28 03:53:22;;;;;;;60.50;27.30;;;;;;;-7.14;78.41;100400.77;1641323;85;26026;-79
2021/12/28 03:55:49;;;;;;;51.95;24.98;;;;;;;-7.13;78.46;100401.16;1637634;85;25762;-78
2021/12/28 03:58:15;;;;;;;62.00;25.17;;;;;;;-7.14;78.37;100390.36;1639751;86;26651;-78
2021/12/28 04:00:45;;;;;;;49.20;21.65;;;;;;;-7.14;78.38;100407.27;1638737;85;26568;-78
2021/12/28 04:03:12;;;;;;;69.65;31.62;;;;;;;-7.14;78.43;100400.77;1607563;87;28057;-79
2021/12/28 04:05:41;;;;;;;57.60;24.52;;;;;;;-7.12;78.62;100400.22;1602437;89;25949;-79
2021/12/28 04:08:07;;;;;;;48.92;22.27;;;;;;;-7.09;78.53;100398.77;1602858;87;25879;-78
2021/12/28 04:10:49;;;;;;;64.60;29.65;;;;;;;-7.08;78.58;100393.11;1637783;87;25849;-78
2021/12/28 04:13:02;;;;;;;49.13;22.42;;;;;;;-7.08;78.53;100392.63;1640672;85;25960;-78
2021/12/28 04:15:28;;;;;;;50.12;22.85;;;;;;;-7.06;78.58;100387.36;1640420;86;27701;-78
2021/12/28 04:17:54;;;;;;;59.45;25.30;;;;;;;-7.05;78.55;100385.13;1638046;86;26546;-78
2021/12/28 04:20:22;;;;;;;69.32;27.93;;;;;;;-7.04;78.58;100384.67;1636403;87;25789;-79
2021/12/28 04:22:50;;;;;;;63.83;28.52;;;;;;;-7.03;78.62;100387.18;1604046;87;26540;-78
2021/12/28 04:25:18;;;;;;;60.65;27.60;;;;;;;-7.02;78.62;100384.98;1580133;89;25772;-78
2021/12/28 04:27:45;;;;;;;56.30;24.18;;;;;;;-7.00;78.66;100387.48;1639225;85;28240;-78
2021/12/28 04:30:14;;;;;;;52.98;23.87;;;;;;;-7.01;78.69;100384.03;1640800;86;26629;-78
2021/12/28 04:32:41;;;;;;;56.92;24.77;;;;;;;-6.98;78.66;100386.48;1638198;85;25783;-78
2021/12/28 04:35:08;;;;;;;66.42;28.47;;;;;;;-6.96;78.66;100385.09;1603832;88;25782;-78
2021/12/28 04:37:35;;;;;;;58.85;27.75;;;;;;;-6.95;78.74;100383.73;1637153;85;25926;-78
2021/12/28 04:40:03;;;;;;;60.40;28.00;;;;;;;-6.96;78.60;100382.03;1636751;85;27451;-79
2021/12/28 04:42:30;;;;;;;61.55;25.70;;;;;;;-6.96;78.63;100384.64;1636504;85;26079;-78
2021/12/28 04:44:56;;;;;;;56.73;25.17;;;;;;;-6.95;78.64;100385.03;1596854;89;26015;-78
2021/12/28 04:47:23;;;;;;;66.95;28.30;;;;;;;-6.94;78.66;100384.09;1602742;87;26498;-79
2021/12/28 04:49:49;;;;;;;63.00;28.57;;;;;;;-6.93;78.66;100383.64;1602875;87;25851;-78
2021/12/28 04:52:16;;;;;;;53.63;25.90;;;;;;;-6.92;78.68;100385.30;1576594;89;27448;-78
2021/12/28 04:54:43;;;;;;;60.58;28.17;;;;;;;-6.92;78.60;100392.66;1638864;87;25828;-78
2021/12/28 04:57:09;;;;;;;68.35;33.48;;;;;;;-6.93;78.56;100400.11;1634954;85;25871;-78
2021/12/28 04:59:36;;;;;;;60.08;28.55;;;;;;;-6.94;78.55;100389.30;1634736;86;25843;-78
2021/12/28 05:02:05;;;;;;;52.67;23.12;;;;;;;-6.92;78.66;100390.06;1637984;85;25880;-78
2021/12/28 05:04:31;;;;;;;54.88;26.23;;;;;;;-6.97;78.51;100386.85;1639657;85;27547;-78
2021/12/28 05:06:58;;;;;;;50.63;25.20;;;;;;;-6.98;78.67;100385.64;1640341;85;25945;-78
2021/12/28 05:09:24;;;;;;;63.45;29.77;;;;;;;-6.98;78.69;100390.84;1604250;87;25849;-78
2021/12/28 05:11:50;;;;;;;63.45;28.90;;;;;;;-6.99;78.72;100387.88;1580053;89;25847;-77
2021/12/28 05:14:18;;;;;;;62.67;29.30;;;;;;;-6.98;78.66;100388.24;1602557;88;25824;-78
2021/12/28 05:16:45;;;;;;;58.68;25.35;;;;;;;-7.00;78.69;100392.23;1600386;89;27447;-78
2021/12/28 05:19:11;;;;;;;50.20;23.45;;;;;;;-7.01;78.65;100387.13;1580048;89;25872;-78
2021/12/28 05:21:38;;;;;;;57.35;28.23;;;;;;;-7.03;78.72;100381.16;1602798;89;25982;-78
2021/12/28 05:24:06;;;;;;;60.48;26.30;;;;;;;-7.02;78.83;100381.52;1636867;86;25784;-78
2021/12/28 05:26:33;;;;;;;46.23;23.10;;;;;;;-7.00;78.95;100380.98;1639226;87;25970;-80
2021/12/28 05:29:00;;;;;;;58.92;28.57;;;;;;;-6.98;78.99;100389.55;1640263;85;27706;-80
2021/12/28 05:31:27;;;;;;;61.95;28.87;;;;;;;-6.99;78.95;100387.39;1638878;85;25792;-81
2021/12/28 05:33:54;;;;;;;51.28;25.30;;;;;;;-6.97;78.98;100393.84;1604629;87;25746;-81
2021/12/28 05:36:22;;;;;;;55.48;24.75;;;;;;;-6.97;79.05;100396.45;1638053;85;25970;-80
2021/12/28 05:38:50;;;;;;;58.58;27.13;;;;;;;-6.96;79.04;100394.20;1604055;88;26078;-81
2021/12/28 05:41:16;;;;;;;61.83;27.95;;;;;;;-6.95;79.17;100387.64;1606199;87;27532;-80
2021/12/28 05:43:42;;;;;;;57.75;26.62;;;;;;;-6.94;79.18;100387.16;1638091;85;25907;-80
2021/12/28 05:46:08;;;;;;;45.58;21.57;;;;;;;-6.94;79.30;100390.61;1603651;88;25803;-80
2021/12/28 05:48:35;;;;;;;42.93;19.35;;;;;;;-6.93;79.29;100388.85;1644510;86;26542;-80
2021/12/28 05:51:01;;;;;;;58.15;27.10;;;;;;;-6.93;79.32;100384.94;1639062;86;26478;-80
2021/12/28 05:53:27;;;;;;;52.85;21.40;;;;;;;-6.94;79.36;100378.89;1638285;86;28381;-80
2021/12/28 05:55:53;;;;;;;44.18;21.82;;;;;;;-6.94;79.38;100376.29;1638479;86;25899;-81
2021/12/28 05:58:20;;;;;;;50.63;22.15;;;;;;;-6.92;79.45;100372.29;1637636;87;25785;-80
2021/12/28 06:00:46;;;;;;;51.08;23.75;;;;;;;-6.93;79.48;100368.02;1632197;85;25934;-80
2021/12/28 06:03:12;;;;;;;50.88;25.25;;;;;;;-6.93;79.58;100375.38;1606586;87;26540;-81
2021/12/28 06:05:39;;;;;;;68.30;30.48;;;;;;;-6.94;79.63;100377.59;1605510;87;27467;-81
2021/12/28 06:08:05;;;;;;;60.85;31.40;;;;;;;-6.94;79.71;100376.73;1583155;89;25807;-81
2021/12/28 06:10:31;;;;;;;52.30;25.75;;;;;;;-6.90;79.89;100381.70;1578477;90;25891;-80
2021/12/28 06:12:58;;;;;;;79.35;43.40;;;;;;;-6.90;79.79;100379.10;1641009;85;26464;-81
2021/12/28 06:15:24;;;;;;;68.50;34.58;;;;;;;-6.89;79.87;100384.70;1639948;86;25759;-80
2021/12/28 06:17:50;;;;;;;63.87;29.87;;;;;;;-6.86;79.94;100380.61;1603783;87;27531;-80
2021/12/28 06:20:17;;;;;;;56.37;26.20;;;;;;;-6.82;79.90;100380.00;1643771;85;25909;-80
2021/12/28 06:22:43;;;;;;;63.50;28.30;;;;;;;-6.82;79.99;100370.89;1604183;87;25392;-81
2021/12/28 06:25:09;;;;;;;55.95;29.80;;;;;;;-6.84;79.98;100368.84;1585161;89;26518;-80
2021/12/28 06:27:35;;;;;;;71.97;34.48;;;;;;;-6.82;80.07;100378.70;1578041;89;25803;-80
2021/12/28 06:30:02;;;;;;;72.90;34.08;;;;;;;-6.79;80.07;100376.77;1637241;86;27463;-80
2021/12/28 06:32:28;;;;;;;67.03;32.73;;;;;;;-6.77;80.09;100377.52;1639765;85;25815;-80
2021/12/28 06:34:54;;;;;;;102.20;47.27;;;;;;;-6.74;80.16;100379.97;1603728;88;25784;-80
2021/12/28 06:37:21;;;;;;;76.05;35.78;;;;;;;-6.72;80.24;100383.78;1638787;85;25937;-80
2021/12/28 06:39:47;;;;;;;71.00;35.03;;;;;;;-6.72;80.31;100374.67;1606173;87;25902;-80
2021/12/28 06:42:13;;;;;;;69.17;32.93;;;;;;;-6.72;80.45;100379.87;1581772;87;27450;-80
2021/12/28 06:44:42;;;;;;;76.57;37.90;;;;;;;-6.71;80.51;100381.09;1638835;87;25793;-79
2021/12/28 06:47:07;;;;;;;68.47;31.02;;;;;;;-6.65;80.63;100377.33;1635496;85;25854;-81
2021/12/28 06:49:34;;;;;;;68.10;34.60;;;;;;;-6.62;80.67;100373.23;1638058;86;26587;-80
2021/12/28 06:52:00;;;;;;;82.33;39.60;;;;;;;-6.60;80.78;100370.92;1640172;85;25845;-81
2021/12/28 06:54:26;;;;;;;86.57;39.65;;;;;;;-6.57;80.80;100368.16;1640930;85;27453;-80
2021/12/28 06:56:52;;;;;;;83.25;38.98;;;;;;;-6.52;81.01;100364.82;1637602;85;25944;-81
2021/12/28 06:59:18;;;;;;;74.15;32.28;;;;;;;-6.50;80.97;100363.45;1635944;87;25892;-81
2021/12/28 07:01:45;;;;;;;61.15;29.18;;;;;;;-6.48;81.08;100355.09;1636782;85;26720;-81
2021/12/28 07:04:11;;;;;;;57.10;28.87;;;;;;;-6.44;81.16;100352.69;1639809;85;25868;-80
2021/12/28 07:06:37;;;;;;;80.40;37.17;;;;;;;-6.42;81.28;100355.59;1639915;85;27454;-80
2021/12/28 07:09:03;;;;;;;81.78;40.00;;;;;;;-6.39;81.39;100357.16;1634902;86;26572;-81
2021/12/28 07:11:29;;;;;;;71.87;35.28;;;;;;;-6.35;81.43;100354.78;1640668;85;25828;-81
2021/12/28 07:13:56;;;;;;;75.22;36.98;;;;;;;-6.31;81.48;100354.49;1642249;86;25815;-80
2021/12/28 07:16:22;;;;;;;65.83;31.20;;;;;;;-6.24;81.55;100359.39;1606825;87;25970;-80
2021/12/28 07:18:48;;;;;;;70.45;30.62;;;;;;;-6.20;81.61;100359.59;1578532;89;27502;-80
2021/12/28 07:21:15;;;;;;;68.52;33.75;;;;;;;-6.16;81.69;100357.17;1641639;85;25295;-81
2021/12/28 07:23:41;;;;;;;69.82;32.83;;;;;;;-6.14;81.85;100348.34;1637066;86;25865;-80
2021/12/28 07:26:07;;;;;;;57.00;28.57;;;;;;;-6.10;81.87;100352.45;1639453;85;25895;-80
2021/12/28 07:28:33;;;;;;;64.95;32.40;;;;;;;-6.06;82.00;100342.67;1641125;85;25789;-80
2021/12/28 07:31:00;;;;;;;91.12;39.23;;;;;;;-6.02;82.02;100341.56;1638444;86;27464;-80
2021/12/28 07:33:26;;;;;;;78.35;32.13;;;;;;;-5.99;82.41;100344.02;1602727;88;26462;-81
2021/12/28 07:35:52;;;;;;;97.85;39.55;;;;;;;-5.96;82.40;100344.66;1637373;85;25330;-81
2021/12/28 07:38:18;;;;;;;103.15;38.85;;;;;;;-5.91;82.54;100337.88;1639004;86;25864;-80
2021/12/28 07:40:45;;;;;;;72.03;29.27;;;;;;;-5.86;82.45;100341.06;1636852;85;25816;-80
2021/12/28 07:43:12;;;;;;;71.53;28.80;;;;;;;-5.80;82.52;100344.12;1638162;86;27461;-81
2021/12/28 07:45:38;;;;;;;55.63;22.93;;;;;;;-5.76;82.54;100349.53;1641653;86;26650;-80
2021/12/28 07:48:05;;;;;;;59.63;25.23;;;;;;;-5.73;82.54;100347.22;1603710;87;25868;-81
2021/12/28 07:50:31;;;;;;;59.80;27.73;;;;;;;-5.70;82.54;100344.41;1639916;85;26563;-80
2021/12/28 07:52:57;;;;;;;71.05;31.77;;;;;;;-5.65;82.65;100342.37;1637490;85;25823;-81
2021/12/28 07:55:24;;;;;;;62.73;27.80;;;;;;;-5.57;82.72;100351.88;1637605;86;27440;-80
2021/12/28 07:57:50;;;;;;;49.33;22.50;;;;;;;-5.52;82.71;100353.28;1605463;87;25980;-80
2021/12/28 08:00:19;;;;;;;67.15;28.65;;;;;;;-5.47;82.73;100346.48;1634297;86;25847;-80
2021/12/28 08:02:46;;;;;;;50.45;24.07;;;;;;;-5.41;82.78;100355.73;1639363;85;25921;-81
2021/12/28 08:05:16;;;;;;;47.43;21.25;;;;;;;-5.38;82.80;100348.55;1637965;85;25851;-80
2021/12/28 08:07:42;;;;;;;44.05;22.10;;;;;;;-5.33;82.86;100344.36;1640854;85;27857;-79
2021/12/28 08:10:14;;;;;;;52.75;25.08;;;;;;;-5.28;82.88;100331.87;1604165;87;25809;-79
2021/12/28 08:12:41;;;;;;;55.50;25.85;;;;;;;-5.24;83.09;100324.22;1638065;85;25759;-77
2021/12/28 08:15:09;;;;;;;51.13;23.80;;;;;;;-5.19;83.10;100328.67;1640614;85;25903;-77
2021/12/28 08:17:36;;;;;;;59.15;25.02;;;;;;;-5.14;83.11;100320.11;1604116;87;26540;-78
2021/12/28 08:20:06;;;;;;;54.58;26.45;;;;;;;-5.09;83.19;100317.56;1639233;85;27477;-78
2021/12/28 08:22:32;;;;;;;55.88;26.02;;;;;;;-5.04;83.20;100304.23;1601046;87;25844;-79
2021/12/28 08:24:59;;;;;;;63.17;27.13;;;;;;;-5.00;83.25;100296.11;1577367;90;25864;-78
2021/12/28 08:27:27;;;;;;;65.40;27.10;;;;;;;-4.93;83.30;100297.41;1599216;87;26625;-78
2021/12/28 08:29:54;;;;;;;47.27;23.77;;;;;;;-4.84;83.36;100285.55;1604245;89;25717;-78
2021/12/28 08:32:20;;;;;;;65.30;31.37;;;;;;;-4.78;83.36;100292.53;1637479;86;27439;-78
2021/12/28 08:34:46;;;;;;;98.20;38.05;;;;;;;-4.72;83.26;100299.13;1607548;87;25328;-77
2021/12/28 08:37:12;;;;;;;154.32;55.33;;;;;;;-4.67;83.21;100291.84;1638461;86;25805;-78
2021/12/28 08:39:39;;;;;;;245.07;93.00;;;;;;;-4.62;83.16;100285.86;1638992;86;25865;-78
2021/12/28 08:42:05;;;;;;;117.03;52.65;;;;;;;-4.56;83.17;100286.77;1639222;86;25993;-78
2021/12/28 08:44:31;;;;;;;108.63;55.35;;;;;;;-4.50;83.01;100288.13;1640329;85;27470;-77
2021/12/28 08:46:58;;;;;;;60.83;32.90;;;;;;;-4.47;82.97;100292.68;1641694;84;25782;-79
2021/12/28 08:49:26;;;;;;;49.18;25.72;;;;;;;-4.43;82.93;100298.11;1638591;86;25818;-77
2021/12/28 08:51:53;;;;;;;44.95;25.15;;;;;;;-4.39;82.95;100297.43;1603146;87;25835;-77
2021/12/28 08:54:20;;;;;;;45.83;23.87;;;;;;;-4.35;82.81;100306.28;1639966;85;26502;-78
2021/12/28 08:56:47;;;;;;;46.37;22.90;;;;;;;-4.31;82.78;100288.61;1636173;87;27458;-79
2021/12/28 08:59:14;;;;;;;38.55;20.20;;;;;;;-4.29;82.55;100286.73;1638760;86;25979;-78
2021/12/28 09:01:40;;;;;;;43.38;21.48;;;;;;;-4.28;82.43;100285.81;1635867;85;25882;-78
2021/12/28 09:04:07;;;;;;;38.08;21.48;;;;;;;-4.27;82.43;100288.31;1638271;86;25978;-78
2021/12/28 09:06:33;;;;;;;38.85;21.85;;;;;;;-4.24;82.57;100283.35;1637531;85;25839;-78
2021/12/28 09:08:59;;;;;;;42.38;20.80;;;;;;;-4.21;82.49;100290.98;1605772;87;27541;-78
2021/12/28 09:11:26;;;;;;;42.78;22.90;;;;;;;-4.16;82.47;100290.22;1603414;87;25764;-78
2021/12/28 09:13:52;;;;;;;44.58;23.83;;;;;;;-4.15;82.25;100283.56;1606252;87;25813;-77
2021/12/28 09:16:19;;;;;;;43.58;21.85;;;;;;;-4.14;82.20;100283.11;1602128;87;25839;-77
2021/12/28 09:18:46;;;;;;;43.73;22.55;;;;;;;-4.10;82.23;100280.66;1638145;86;25856;-79
2021/12/28 09:21:12;;;;;;;45.67;23.32;;;;;;;-4.09;82.24;100275.34;1636007;86;28310;-77
2021/12/28 09:23:39;;;;;;;43.13;21.73;;;;;;;-4.09;82.02;100276.65;1639297;86;25920;-78
2021/12/28 09:26:06;;;;;;;54.95;28.15;;;;;;;-4.06;82.13;100270.34;1638108;85;25780;-78
2021/12/28 09:28:32;;;;;;;44.60;21.45;;;;;;;-4.04;82.13;100275.85;1639176;85;26567;-78
2021/12/28 09:30:59;;;;;;;49.58;24.92;;;;;;;-4.01;82.24;100278.73;1605379;87;25328;-78
2021/12/28 09:33:25;;;;;;;49.05;25.02;;;;;;;-3.97;82.26;100273.20;1640503;85;28320;-78
2021/12/28 09:35:52;;;;;;;46.92;23.83;;;;;;;-3.94;82.05;100270.86;1639971;85;25758;-79
2021/12/28 09:38:20;;;;;;;51.83;26.27;;;;;;;-3.95;81.88;100250.39;1603687;87;26227;-78
2021/12/28 09:40:48;;;;;;;59.20;27.75;;;;;;;-3.94;82.00;100247.31;1604203;88;25825;-78
2021/12/28 09:43:15;;;;;;;52.98;27.73;;;;;;;-3.91;81.91;100243.16;1641670;85;25885;-76
2021/12/28 09:45:41;;;;;;;51.33;27.10;;;;;;;-3.91;81.92;100247.92;1640104;86;27453;-77
2021/12/28 09:48:09;;;;;;;58.02;29.95;;;;;;;-3.89;81.88;100245.20;1642792;85;25742;-77
2021/12/28 09:50:39;;;;;;;49.45;25.20;;;;;;;-3.85;81.93;100249.77;1639304;86;25806;-77
2021/12/28 09:53:08;;;;;;;54.85;28.92;;;;;;;-3.84;81.72;100237.04;1640079;85;26534;-76
2021/12/28 09:55:34;;;;;;;63.02;29.87;;;;;;;-3.84;81.80;100245.73;1639802;85;25867;-76
2021/12/28 09:58:00;;;;;;;54.13;27.22;;;;;;;-3.81;81.85;100248.16;1603309;87;27451;-76
2021/12/28 10:00:28;;;;;;;49.80;25.80;;;;;;;-3.78;81.80;100251.01;1639394;86;25755;-76
2021/12/28 10:02:55;;;;;;;51.15;27.58;;;;;;;-3.76;81.62;100250.46;1635440;85;25835;-76
2021/12/28 10:05:25;;;;;;;60.98;28.70;;;;;;;-3.77;81.53;100252.23;1641058;86;26586;-76
2021/12/28 10:07:57;;;;;;;72.72;35.52;;;;;;;-3.77;81.58;100256.16;1640726;85;25814;-77
2021/12/28 10:10:27;;;;;;;63.58;32.35;;;;;;;-3.76;81.42;100259.62;1644549;85;27509;-76
2021/12/28 10:13:05;;;;;;;62.78;32.50;;;;;;;-3.75;81.53;100268.66;1638021;86;25929;-77
2021/12/28 10:15:35;;;;;;;50.38;27.73;;;;;;;-3.76;81.48;100265.67;1639057;87;25824;-76
2021/12/28 10:18:07;;;;;;;40.50;22.62;;;;;;;-3.74;81.52;100257.73;1642019;85;25838;-77
2021/12/28 10:20:38;;;;;;;52.50;27.02;;;;;;;-3.71;81.51;100249.66;1638635;85;25863;-76
2021/12/28 10:23:10;;;;;;;72.72;40.88;;;;;;;-3.68;81.50;100258.62;1603514;87;27450;-76
2021/12/28 10:25:53;;;;;;;52.03;28.20;;;;;;;-3.68;81.44;100261.23;1640410;86;26424;-76
2021/12/28 10:28:24;;;;;;;56.83;31.97;;;;;;;-3.67;81.41;100264.20;1609971;87;25284;-76
2021/12/28 10:30:57;;;;;;;45.25;26.00;;;;;;;-3.68;81.50;100256.84;1581591;89;26589;-76
2021/12/28 10:33:27;;;;;;;47.60;24.00;;;;;;;-3.68;81.38;100251.61;1602631;89;25975;-76
2021/12/28 10:35:59;;;;;;;45.88;24.87;;;;;;;-3.65;81.58;100248.77;1578082;90;27464;-76
2021/12/28 10:38:29;;;;;;;48.17;24.85;;;;;;;-3.64;81.42;100249.14;1635165;85;25830;-77
2021/12/28 10:41:02;;;;;;;;;;;;;;;-3.62;81.53;100249.88;1636959;86;25985;-77
2021/12/28 10:43:33;;;;;;;53.70;26.52;;;;;;;-3.59;81.43;100247.52;1631232;86;25801;-76
2021/12/28 10:46:10;;;;;;;44.38;23.57;;;;;;;-3.60;81.58;100245.37;1634114;85;33164;-76
2021/12/28 10:48:41;;;;;;;43.60;23.60;;;;;;;-3.58;81.49;100249.18;1603297;87;27476;-77
2021/12/28 10:51:21;;;;;;;46.92;25.02;;;;;;;-3.55;81.46;100245.87;1602902;87;25889;-76
2021/12/28 10:54:12;;;;;;;37.35;21.00;;;;;;;-3.49;81.68;100236.77;1602899;87;25816;-76
2021/12/28 10:56:35;;;;;;;48.13;24.10;;;;;;;-3.47;81.39;100234.41;1636546;87;25831;-75
2021/12/28 10:59:05;;;;;;;45.17;23.10;;;;;;;-3.46;81.37;100226.91;1636572;86;25751;-76
2021/12/28 11:01:38;;;;;;;37.00;20.52;;;;;;;-3.41;81.39;100210.88;1636900;85;27427;-77
2021/12/28 11:04:09;;;;;;;40.83;21.62;;;;;;;-3.40;81.21;100198.98;1604643;87;25768;-76
2021/12/28 11:06:43;;;;;;;44.18;23.85;;;;;;;-3.39;81.19;100199.83;1639963;85;26473;-76
2021/12/28 11:09:14;;;;;;;45.83;23.67;;;;;;;-3.39;81.05;100199.83;1639873;85;25846;-77
2021/12/28 11:11:41;;;;;;;48.17;25.43;;;;;;;-3.41;81.23;100184.23;1632796;86;25871;-75
2021/12/28 11:14:16;;;;;;;47.00;25.00;;;;;;;-3.35;81.33;100188.19;1637886;87;27461;-77